Airport View

Enter AWOS ICAO identifier for current METAR.

ex. KFNL

KOJC 191853Z 33009KT 10SM FEW018 BKN023 BKN036 23/18 A2973 RMK AO2 RAE1759 SLP059 P0000 T02330183

19 Jun 2019 19:24

Phone: 913-780-6969

Other Area AWOS: KIXD - KMKC - KLXT - KLRY

TAF KMKC 191726Z 1918/2018 35006KT P6SM VCSH OVC020 FM192100 34008KT P6SM VCSH OVC035 FM200100 30005KT P6SM SCT100 FM200900 21003KT 6SM BR SCT035 FM201300 19007KT P6SM FEW060